Preview of NWS' New Version of Forecast
This preview is not operational and should not be used for support decisions.

Terminal Aerodrome Forecast (TAF)

Issued by National Weather Service (NWS)

                            
000
FTUS42 KMFL 192100 AAA
TAFMIA
TAF AMD
KMIA 192100Z 1921/2024 15012KT P6SM SCT040 BKN150
     FM200700 17005KT P6SM SCT035 SCT200
     FM201100 21008KT P6SM VCSH SCT035 BKN150
     FM201500 26012KT P6SM VCSH SCT035 OVC050
     FM201900 28014KT P6SM SCT040=